ALK182 VNKT-VCBI
Flight info
| Callsign | ALK182 |
|---|---|
| Flight time | N/A |
| Altitude | 39000 |
| Route | IGRIS1E LALBA G335 SEETA/N0370F240 G335 PPT W106 GGC/N0373F250 W106 RRC/N0449F390 J27 MALSU/N0449F380 J26 VVZ A465 SAGOR SAGOR1A |
| Aircraft | A20N/M-SDE2E3FGHIRWXY/LB1 |
Departure
| Time | N/A |
|---|---|
| Airport | Tribhuvan International Airport (VNKT) |
Arrival
| Time | 2026-05-07 09:55 |
|---|---|
| Airport | Bandaranaike International Colombo Airport (VCBI) |
| Time | Latitude | Longitude | Altitude | Speed | Heading |
|---|---|---|---|---|---|
| 2026-05-07 08:00 | 19.41516 | 84.49554 | 38847 ft | 420 kts | 217° |
| 2026-05-07 08:01 | 19.36673 | 84.46090 | 38855 ft | 420 kts | 217° |
| 2026-05-07 08:01 | 19.31822 | 84.42623 | 38860 ft | 421 kts | 217° |
| 2026-05-07 08:02 | 19.26958 | 84.39152 | 38876 ft | 422 kts | 217° |
| 2026-05-07 08:02 | 19.22090 | 84.35679 | 38881 ft | 422 kts | 217° |
| 2026-05-07 08:03 | 19.17215 | 84.32204 | 38879 ft | 423 kts | 217° |
| 2026-05-07 08:03 | 19.12350 | 84.28737 | 38882 ft | 421 kts | 217° |
| 2026-05-07 08:04 | 19.07499 | 84.25284 | 38879 ft | 420 kts | 217° |
| 2026-05-07 08:04 | 19.02662 | 84.21843 | 38871 ft | 423 kts | 217° |
| 2026-05-07 08:05 | 18.97784 | 84.18376 | 38876 ft | 422 kts | 217° |
| 2026-05-07 08:05 | 18.92909 | 84.14914 | 38870 ft | 422 kts | 217° |
| 2026-05-07 08:06 | 18.88033 | 84.11452 | 38864 ft | 422 kts | 217° |
| 2026-05-07 08:06 | 18.83154 | 84.07992 | 38861 ft | 423 kts | 217° |
| 2026-05-07 08:07 | 18.78270 | 84.04532 | 38854 ft | 422 kts | 217° |
| 2026-05-07 08:07 | 18.73406 | 84.01087 | 38864 ft | 423 kts | 216° |
| 2026-05-07 08:08 | 18.68539 | 83.97645 | 38856 ft | 423 kts | 216° |
| 2026-05-07 08:08 | 18.63650 | 83.94188 | 38853 ft | 423 kts | 216° |
| 2026-05-07 08:09 | 18.58759 | 83.90730 | 38846 ft | 423 kts | 216° |
| 2026-05-07 08:09 | 18.53862 | 83.87269 | 38845 ft | 424 kts | 216° |
| 2026-05-07 08:10 | 18.48973 | 83.83797 | 38848 ft | 424 kts | 217° |
| 2026-05-07 08:10 | 18.44099 | 83.80296 | 38847 ft | 424 kts | 217° |
| 2026-05-07 08:11 | 18.39217 | 83.76795 | 38847 ft | 425 kts | 216° |
| 2026-05-07 08:11 | 18.34329 | 83.73302 | 38849 ft | 425 kts | 216° |
| 2026-05-07 08:12 | 18.29436 | 83.69808 | 38848 ft | 425 kts | 216° |
| 2026-05-07 08:12 | 18.24545 | 83.66309 | 38852 ft | 425 kts | 216° |
| 2026-05-07 08:13 | 18.19647 | 83.62810 | 38849 ft | 426 kts | 216° |
| 2026-05-07 08:13 | 18.14746 | 83.59313 | 38847 ft | 426 kts | 216° |
| 2026-05-07 08:14 | 18.09838 | 83.55811 | 38851 ft | 426 kts | 216° |
| 2026-05-07 08:14 | 18.04933 | 83.52316 | 38846 ft | 426 kts | 216° |
| 2026-05-07 08:15 | 18.00020 | 83.48819 | 38843 ft | 426 kts | 216° |
| 2026-05-07 08:15 | 17.95141 | 83.45348 | 38843 ft | 426 kts | 216° |
| 2026-05-07 08:16 | 17.90226 | 83.41853 | 38844 ft | 427 kts | 216° |
| 2026-05-07 08:16 | 17.85310 | 83.38360 | 38849 ft | 427 kts | 216° |
| 2026-05-07 08:17 | 17.80384 | 83.34862 | 38850 ft | 427 kts | 216° |
| 2026-05-07 08:17 | 17.75457 | 83.31367 | 38851 ft | 427 kts | 216° |
| 2026-05-07 08:18 | 17.70528 | 83.27872 | 38853 ft | 428 kts | 216° |
| 2026-05-07 08:18 | 17.65594 | 83.24381 | 38855 ft | 428 kts | 215° |
| 2026-05-07 08:19 | 17.60583 | 83.20991 | 38855 ft | 429 kts | 214° |
| 2026-05-07 08:19 | 17.55555 | 83.17617 | 38853 ft | 429 kts | 214° |
| 2026-05-07 08:20 | 17.50533 | 83.14229 | 38850 ft | 430 kts | 214° |
| 2026-05-07 08:20 | 17.45507 | 83.10835 | 38847 ft | 430 kts | 214° |
| 2026-05-07 08:21 | 17.40480 | 83.07443 | 38843 ft | 430 kts | 214° |
| 2026-05-07 08:21 | 17.35446 | 83.04046 | 38843 ft | 430 kts | 214° |
| 2026-05-07 08:22 | 17.30412 | 83.00652 | 38843 ft | 431 kts | 214° |
| 2026-05-07 08:22 | 17.25370 | 82.97257 | 38841 ft | 431 kts | 214° |
| 2026-05-07 08:23 | 17.20325 | 82.93861 | 38843 ft | 431 kts | 214° |
| 2026-05-07 08:23 | 17.15279 | 82.90464 | 38842 ft | 431 kts | 214° |
| 2026-05-07 08:24 | 17.10230 | 82.87069 | 38839 ft | 432 kts | 214° |
| 2026-05-07 08:24 | 17.05207 | 82.83695 | 38839 ft | 432 kts | 214° |
| 2026-05-07 08:25 | 17.00148 | 82.80300 | 38839 ft | 432 kts | 213° |
| 2026-05-07 08:25 | 16.95088 | 82.76906 | 38837 ft | 432 kts | 213° |
| 2026-05-07 08:26 | 16.87491 | 82.71814 | 38832 ft | 433 kts | 213° |
| 2026-05-07 08:26 | 16.82388 | 82.68399 | 38834 ft | 433 kts | 213° |
| 2026-05-07 08:27 | 16.77350 | 82.65026 | 38833 ft | 433 kts | 213° |
| 2026-05-07 08:27 | 16.72168 | 82.61830 | 38834 ft | 434 kts | 202° |
| 2026-05-07 08:28 | 16.66512 | 82.59613 | 38829 ft | 434 kts | 202° |
| 2026-05-07 08:28 | 16.60849 | 82.57406 | 38829 ft | 435 kts | 202° |
| 2026-05-07 08:29 | 16.55180 | 82.55198 | 38833 ft | 435 kts | 202° |
| 2026-05-07 08:29 | 16.49507 | 82.52991 | 38832 ft | 435 kts | 202° |
| 2026-05-07 08:30 | 16.43827 | 82.50783 | 38836 ft | 436 kts | 201° |
| 2026-05-07 08:30 | 16.38146 | 82.48576 | 38834 ft | 436 kts | 201° |
| 2026-05-07 08:31 | 16.32462 | 82.46370 | 38831 ft | 436 kts | 202° |
| 2026-05-07 08:31 | 16.26771 | 82.44161 | 38835 ft | 437 kts | 201° |
| 2026-05-07 08:32 | 16.21076 | 82.41954 | 38836 ft | 437 kts | 201° |
| 2026-05-07 08:32 | 16.15380 | 82.39747 | 38834 ft | 437 kts | 201° |
| 2026-05-07 08:33 | 16.09678 | 82.37539 | 38833 ft | 437 kts | 201° |
| 2026-05-07 08:33 | 16.03974 | 82.35332 | 38831 ft | 437 kts | 201° |
| 2026-05-07 08:34 | 15.98267 | 82.33125 | 38830 ft | 438 kts | 201° |
| 2026-05-07 08:34 | 15.92560 | 82.30920 | 38830 ft | 438 kts | 201° |
| 2026-05-07 08:35 | 15.86853 | 82.28717 | 38833 ft | 438 kts | 201° |
| 2026-05-07 08:35 | 15.81140 | 82.26513 | 38836 ft | 438 kts | 201° |
| 2026-05-07 08:36 | 15.75428 | 82.24312 | 38828 ft | 438 kts | 201° |
| 2026-05-07 08:36 | 15.69721 | 82.22111 | 38829 ft | 438 kts | 201° |
| 2026-05-07 08:37 | 15.64012 | 82.19911 | 38826 ft | 438 kts | 201° |
| 2026-05-07 08:37 | 15.58304 | 82.17714 | 38823 ft | 437 kts | 201° |
| 2026-05-07 08:38 | 15.52599 | 82.15519 | 38827 ft | 437 kts | 201° |
| 2026-05-07 08:38 | 15.46934 | 82.13340 | 38828 ft | 437 kts | 201° |
| 2026-05-07 08:39 | 15.41230 | 82.11145 | 38822 ft | 437 kts | 201° |
| 2026-05-07 08:39 | 15.35530 | 82.08956 | 38821 ft | 437 kts | 201° |
| 2026-05-07 08:40 | 15.29829 | 82.06767 | 38821 ft | 437 kts | 201° |
| 2026-05-07 08:40 | 15.24136 | 82.04581 | 38823 ft | 436 kts | 200° |
| 2026-05-07 08:41 | 15.18437 | 82.02397 | 38825 ft | 436 kts | 200° |
| 2026-05-07 08:41 | 15.12748 | 82.00219 | 38823 ft | 436 kts | 200° |
| 2026-05-07 08:42 | 15.07055 | 81.98041 | 38819 ft | 436 kts | 200° |
| 2026-05-07 08:42 | 15.01364 | 81.95870 | 38817 ft | 436 kts | 200° |
| 2026-05-07 08:43 | 14.95678 | 81.93686 | 38812 ft | 436 kts | 200° |
| 2026-05-07 08:43 | 14.89975 | 81.91499 | 38816 ft | 436 kts | 200° |
| 2026-05-07 08:44 | 14.85238 | 81.89685 | 38817 ft | 436 kts | 200° |
| 2026-05-07 08:44 | 14.79547 | 81.87513 | 38820 ft | 436 kts | 200° |
| 2026-05-07 08:45 | 14.73857 | 81.85342 | 38815 ft | 436 kts | 200° |
| 2026-05-07 08:45 | 14.67239 | 81.82816 | 38813 ft | 436 kts | 200° |
| 2026-05-07 08:46 | 14.62457 | 81.80991 | 38811 ft | 436 kts | 200° |
| 2026-05-07 08:46 | 14.56758 | 81.78827 | 38815 ft | 437 kts | 199° |
| 2026-05-07 08:47 | 14.51055 | 81.76657 | 38816 ft | 437 kts | 200° |
| 2026-05-07 08:47 | 14.45353 | 81.74474 | 38813 ft | 437 kts | 200° |
| 2026-05-07 08:48 | 14.39680 | 81.72311 | 38815 ft | 438 kts | 200° |
| 2026-05-07 08:48 | 14.33967 | 81.70134 | 38818 ft | 438 kts | 200° |
| 2026-05-07 08:49 | 14.28248 | 81.67959 | 38817 ft | 438 kts | 200° |
| 2026-05-07 08:49 | 14.22528 | 81.65788 | 38814 ft | 438 kts | 200° |
| 2026-05-07 08:50 | 14.16758 | 81.63603 | 38817 ft | 439 kts | 200° |
| 2026-05-07 08:50 | 14.11066 | 81.61447 | 38810 ft | 439 kts | 200° |
| 2026-05-07 08:51 | 14.05327 | 81.59273 | 38812 ft | 439 kts | 200° |
| 2026-05-07 08:51 | 13.99590 | 81.57098 | 38813 ft | 440 kts | 200° |
| 2026-05-07 08:52 | 13.93847 | 81.54921 | 38814 ft | 440 kts | 200° |
| 2026-05-07 08:52 | 13.88102 | 81.52745 | 38809 ft | 440 kts | 200° |
| 2026-05-07 08:53 | 13.82351 | 81.50569 | 38815 ft | 440 kts | 200° |
| 2026-05-07 08:53 | 13.76603 | 81.48395 | 38806 ft | 440 kts | 200° |
| 2026-05-07 08:54 | 13.70849 | 81.46220 | 38809 ft | 440 kts | 200° |
| 2026-05-07 08:54 | 13.65098 | 81.44046 | 38807 ft | 440 kts | 199° |
| 2026-05-07 08:55 | 13.59343 | 81.41873 | 38807 ft | 441 kts | 199° |
| 2026-05-07 08:55 | 13.53589 | 81.39701 | 38801 ft | 440 kts | 199° |
| 2026-05-07 08:56 | 13.47837 | 81.37531 | 38800 ft | 441 kts | 199° |
| 2026-05-07 08:56 | 13.42082 | 81.35361 | 38802 ft | 441 kts | 199° |
| 2026-05-07 08:57 | 13.36325 | 81.33191 | 38804 ft | 441 kts | 199° |
| 2026-05-07 08:57 | 13.30563 | 81.31021 | 38802 ft | 441 kts | 199° |
| 2026-05-07 08:58 | 13.24800 | 81.28851 | 38799 ft | 441 kts | 199° |
| 2026-05-07 08:58 | 13.19037 | 81.26682 | 38799 ft | 441 kts | 199° |
| 2026-05-07 08:59 | 13.13264 | 81.24510 | 38798 ft | 442 kts | 199° |
| 2026-05-07 08:59 | 13.07494 | 81.22339 | 38797 ft | 442 kts | 200° |
| 2026-05-07 09:00 | 13.01711 | 81.20164 | 38797 ft | 443 kts | 200° |
| 2026-05-07 09:00 | 12.95953 | 81.18008 | 38801 ft | 443 kts | 199° |
| 2026-05-07 09:01 | 12.90160 | 81.15842 | 38795 ft | 443 kts | 199° |
| 2026-05-07 09:01 | 12.84363 | 81.13666 | 38795 ft | 444 kts | 199° |
| 2026-05-07 09:02 | 12.78569 | 81.11488 | 38803 ft | 444 kts | 199° |
| 2026-05-07 09:02 | 12.72766 | 81.09312 | 38806 ft | 444 kts | 199° |
| 2026-05-07 09:03 | 12.66956 | 81.07135 | 38800 ft | 445 kts | 199° |
| 2026-05-07 09:03 | 12.61142 | 81.04957 | 38798 ft | 445 kts | 200° |
| 2026-05-07 09:04 | 12.55324 | 81.02779 | 38798 ft | 445 kts | 199° |
| 2026-05-07 09:04 | 12.49502 | 81.00602 | 38792 ft | 446 kts | 200° |
| 2026-05-07 09:05 | 12.43676 | 80.98427 | 38786 ft | 446 kts | 199° |
| 2026-05-07 09:05 | 12.37843 | 80.96252 | 38789 ft | 446 kts | 199° |
| 2026-05-07 09:06 | 12.32004 | 80.94071 | 38788 ft | 447 kts | 199° |
| 2026-05-07 09:06 | 12.26163 | 80.91885 | 38791 ft | 447 kts | 200° |
| 2026-05-07 09:07 | 12.20318 | 80.89698 | 38790 ft | 447 kts | 200° |
| 2026-05-07 09:07 | 12.14470 | 80.87515 | 38788 ft | 448 kts | 200° |
| 2026-05-07 09:08 | 12.08613 | 80.85330 | 38789 ft | 448 kts | 200° |
| 2026-05-07 09:08 | 12.02755 | 80.83147 | 38784 ft | 448 kts | 200° |
| 2026-05-07 09:09 | 11.96888 | 80.80961 | 38781 ft | 449 kts | 200° |
| 2026-05-07 09:09 | 11.91021 | 80.78776 | 38787 ft | 449 kts | 200° |
| 2026-05-07 09:10 | 11.85143 | 80.76588 | 38783 ft | 450 kts | 200° |
| 2026-05-07 09:10 | 11.79253 | 80.74397 | 38785 ft | 451 kts | 200° |
| 2026-05-07 09:11 | 11.73361 | 80.72206 | 38786 ft | 451 kts | 200° |
| 2026-05-07 09:11 | 11.67461 | 80.70014 | 38790 ft | 451 kts | 200° |
| 2026-05-07 09:12 | 11.61552 | 80.67819 | 38789 ft | 452 kts | 200° |
| 2026-05-07 09:12 | 11.55644 | 80.65625 | 38792 ft | 452 kts | 200° |
| 2026-05-07 09:13 | 11.49727 | 80.63431 | 38794 ft | 452 kts | 200° |
| 2026-05-07 09:13 | 11.43811 | 80.61236 | 38790 ft | 453 kts | 200° |
| 2026-05-07 09:14 | 11.37898 | 80.59042 | 38782 ft | 451 kts | 200° |
| 2026-05-07 09:14 | 11.31998 | 80.56854 | 38789 ft | 451 kts | 200° |
| 2026-05-07 09:15 | 11.26131 | 80.54681 | 38784 ft | 452 kts | 200° |
| 2026-05-07 09:15 | 11.20233 | 80.52496 | 38783 ft | 451 kts | 200° |
| 2026-05-07 09:16 | 11.14336 | 80.50310 | 38782 ft | 451 kts | 199° |
| 2026-05-07 09:16 | 11.08446 | 80.48132 | 38781 ft | 450 kts | 200° |
| 2026-05-07 09:17 | 11.02563 | 80.45955 | 38775 ft | 450 kts | 200° |
| 2026-05-07 09:17 | 10.96684 | 80.43782 | 38772 ft | 449 kts | 199° |
| 2026-05-07 09:18 | 10.90810 | 80.41612 | 38767 ft | 449 kts | 199° |
| 2026-05-07 09:18 | 10.84899 | 80.39430 | 38771 ft | 449 kts | 199° |
| 2026-05-07 09:19 | 10.79063 | 80.37282 | 38772 ft | 449 kts | 199° |
| 2026-05-07 09:19 | 10.73189 | 80.35121 | 38768 ft | 449 kts | 199° |
| 2026-05-07 09:20 | 10.67318 | 80.32945 | 38770 ft | 449 kts | 199° |
| 2026-05-07 09:20 | 10.61435 | 80.30773 | 38775 ft | 450 kts | 199° |
| 2026-05-07 09:21 | 10.55555 | 80.28607 | 38774 ft | 450 kts | 199° |
| 2026-05-07 09:21 | 10.49656 | 80.26433 | 38774 ft | 451 kts | 199° |
| 2026-05-07 09:22 | 10.43754 | 80.24260 | 38776 ft | 451 kts | 199° |
| 2026-05-07 09:22 | 10.37841 | 80.22083 | 38782 ft | 452 kts | 199° |
| 2026-05-07 09:23 | 10.31925 | 80.19909 | 38786 ft | 452 kts | 199° |
| 2026-05-07 09:23 | 10.26006 | 80.17732 | 38784 ft | 453 kts | 199° |
| 2026-05-07 09:24 | 10.20081 | 80.15551 | 38785 ft | 453 kts | 199° |
| 2026-05-07 09:24 | 10.14149 | 80.13363 | 38785 ft | 454 kts | 199° |
| 2026-05-07 09:25 | 10.08207 | 80.11180 | 38776 ft | 454 kts | 199° |
| 2026-05-07 09:25 | 10.02203 | 80.09204 | 38766 ft | 454 kts | 193° |
| 2026-05-07 09:26 | 9.96024 | 80.08163 | 38756 ft | 453 kts | 184° |
| 2026-05-07 09:26 | 9.89727 | 80.07969 | 38750 ft | 453 kts | 180° |
| 2026-05-07 09:27 | 9.83387 | 80.07850 | 38753 ft | 453 kts | 180° |
| 2026-05-07 09:28 | 9.73960 | 80.07666 | 38756 ft | 454 kts | 180° |
| 2026-05-07 09:28 | 9.67599 | 80.07543 | 38762 ft | 454 kts | 180° |
| 2026-05-07 09:29 | 9.62345 | 80.07442 | 38762 ft | 454 kts | 180° |
| 2026-05-07 09:29 | 9.54997 | 80.07301 | 38769 ft | 454 kts | 180° |
| 2026-05-07 09:30 | 9.48678 | 80.07179 | 38775 ft | 454 kts | 180° |
| 2026-05-07 09:30 | 9.43385 | 80.07077 | 38779 ft | 454 kts | 180° |
| 2026-05-07 09:31 | 9.37069 | 80.06954 | 38777 ft | 454 kts | 180° |
| 2026-05-07 09:31 | 9.30761 | 80.06836 | 38777 ft | 453 kts | 180° |
| 2026-05-07 09:32 | 9.24457 | 80.06714 | 38779 ft | 453 kts | 181° |
| 2026-05-07 09:32 | 9.18156 | 80.06591 | 38774 ft | 452 kts | 180° |
| 2026-05-07 09:33 | 9.11865 | 80.06471 | 38493 ft | 452 kts | 181° |
| 2026-05-07 09:33 | 9.08724 | 80.06411 | 38232 ft | 451 kts | 181° |
| 2026-05-07 09:33 | 9.05581 | 80.06350 | 37761 ft | 454 kts | 181° |
| 2026-05-07 09:33 | 9.02410 | 80.06288 | 36959 ft | 458 kts | 181° |
| 2026-05-07 09:34 | 8.99201 | 80.06226 | 36147 ft | 462 kts | 180° |
| 2026-05-07 09:34 | 8.95979 | 80.06163 | 35345 ft | 464 kts | 180° |
| 2026-05-07 09:34 | 8.92743 | 80.06100 | 34552 ft | 467 kts | 180° |
| 2026-05-07 09:34 | 8.89497 | 80.06036 | 33914 ft | 466 kts | 180° |
| 2026-05-07 09:35 | 8.86250 | 80.05972 | 32989 ft | 469 kts | 180° |
| 2026-05-07 09:35 | 8.82986 | 80.05909 | 32126 ft | 469 kts | 180° |
| 2026-05-07 09:35 | 8.79735 | 80.05846 | 31271 ft | 463 kts | 180° |
| 2026-05-07 09:35 | 8.76546 | 80.05783 | 30583 ft | 453 kts | 180° |
| 2026-05-07 09:36 | 8.73436 | 80.05722 | 29930 ft | 443 kts | 180° |
| 2026-05-07 09:36 | 8.70397 | 80.05663 | 29312 ft | 431 kts | 180° |
| 2026-05-07 09:36 | 8.67448 | 80.05605 | 28717 ft | 420 kts | 180° |
| 2026-05-07 09:36 | 8.64481 | 80.05548 | 28111 ft | 437 kts | 180° |
| 2026-05-07 09:37 | 8.61379 | 80.05491 | 27473 ft | 452 kts | 180° |
| 2026-05-07 09:37 | 8.58222 | 80.05430 | 26819 ft | 456 kts | 180° |
| 2026-05-07 09:37 | 8.55056 | 80.05368 | 26154 ft | 455 kts | 180° |
| 2026-05-07 09:37 | 8.51887 | 80.05307 | 25485 ft | 452 kts | 180° |
| 2026-05-07 09:38 | 8.48753 | 80.05246 | 24808 ft | 449 kts | 180° |
| 2026-05-07 09:38 | 8.45649 | 80.05186 | 24144 ft | 445 kts | 180° |
| 2026-05-07 09:38 | 8.42572 | 80.05128 | 23505 ft | 441 kts | 180° |
| 2026-05-07 09:38 | 8.39510 | 80.05069 | 22810 ft | 437 kts | 180° |
| 2026-05-07 09:39 | 8.36489 | 80.05010 | 22182 ft | 431 kts | 180° |
| 2026-05-07 09:39 | 8.33511 | 80.04952 | 21541 ft | 426 kts | 180° |
| 2026-05-07 09:39 | 8.30591 | 80.04895 | 20907 ft | 413 kts | 180° |
| 2026-05-07 09:39 | 8.27762 | 80.04839 | 20281 ft | 400 kts | 180° |
| 2026-05-07 09:40 | 8.25053 | 80.04786 | 19667 ft | 390 kts | 180° |
| 2026-05-07 09:40 | 8.22332 | 80.04731 | 19060 ft | 385 kts | 180° |
| 2026-05-07 09:40 | 8.19659 | 80.04678 | 18455 ft | 385 kts | 181° |
| 2026-05-07 09:40 | 8.16990 | 80.04626 | 17846 ft | 384 kts | 181° |
| 2026-05-07 09:41 | 8.14328 | 80.04576 | 17275 ft | 381 kts | 181° |
| 2026-05-07 09:41 | 8.11689 | 80.04526 | 16688 ft | 378 kts | 181° |
| 2026-05-07 09:41 | 8.09063 | 80.04477 | 16101 ft | 376 kts | 181° |
| 2026-05-07 09:41 | 8.06452 | 80.04428 | 15500 ft | 375 kts | 181° |
| 2026-05-07 09:42 | 8.03852 | 80.04378 | 14909 ft | 373 kts | 181° |
| 2026-05-07 09:42 | 8.01294 | 80.04330 | 14314 ft | 373 kts | 181° |
| 2026-05-07 09:42 | 7.98712 | 80.04280 | 13731 ft | 371 kts | 180° |
| 2026-05-07 09:42 | 7.96137 | 80.04232 | 13161 ft | 368 kts | 180° |
| 2026-05-07 09:43 | 7.93586 | 80.04186 | 12587 ft | 366 kts | 180° |
| 2026-05-07 09:43 | 7.91052 | 80.04140 | 12018 ft | 363 kts | 180° |
| 2026-05-07 09:43 | 7.88528 | 80.04092 | 11411 ft | 362 kts | 181° |
| 2026-05-07 09:43 | 7.86027 | 80.04042 | 10988 ft | 356 kts | 181° |
| 2026-05-07 09:44 | 7.83581 | 80.03993 | 10582 ft | 349 kts | 181° |
| 2026-05-07 09:44 | 7.81161 | 80.03946 | 10214 ft | 342 kts | 181° |
| 2026-05-07 09:44 | 7.78831 | 80.03901 | 10086 ft | 328 kts | 181° |
| 2026-05-07 09:44 | 7.76593 | 80.03858 | 9977 ft | 315 kts | 181° |
| 2026-05-07 09:45 | 7.74434 | 80.03816 | 9764 ft | 307 kts | 181° |
| 2026-05-07 09:45 | 7.72307 | 80.03775 | 9344 ft | 305 kts | 181° |
| 2026-05-07 09:45 | 7.70187 | 80.03734 | 8930 ft | 303 kts | 181° |
| 2026-05-07 09:45 | 7.68086 | 80.03694 | 8513 ft | 302 kts | 181° |
| 2026-05-07 09:46 | 7.65987 | 80.03653 | 8107 ft | 300 kts | 181° |
| 2026-05-07 09:46 | 7.63904 | 80.03613 | 7689 ft | 299 kts | 181° |
| 2026-05-07 09:46 | 7.61831 | 80.03574 | 7285 ft | 297 kts | 181° |
| 2026-05-07 09:46 | 7.59786 | 80.03534 | 6879 ft | 290 kts | 181° |
| 2026-05-07 09:47 | 7.57799 | 80.03496 | 6481 ft | 281 kts | 181° |
| 2026-05-07 09:47 | 7.55870 | 80.03458 | 6096 ft | 274 kts | 181° |
| 2026-05-07 09:47 | 7.53990 | 80.03423 | 5706 ft | 266 kts | 181° |
| 2026-05-07 09:47 | 7.52164 | 80.03388 | 5341 ft | 259 kts | 181° |
| 2026-05-07 09:48 | 7.50388 | 80.03353 | 4986 ft | 252 kts | 181° |
| 2026-05-07 09:48 | 7.48568 | 80.03318 | 4625 ft | 280 kts | 181° |
| 2026-05-07 09:48 | 7.46549 | 80.03279 | 4393 ft | 292 kts | 181° |
| 2026-05-07 09:48 | 7.44520 | 80.03240 | 3961 ft | 293 kts | 181° |
| 2026-05-07 09:49 | 7.42458 | 80.03202 | 3135 ft | 301 kts | 181° |
| 2026-05-07 09:49 | 7.40337 | 80.03162 | 2272 ft | 306 kts | 182° |
| 2026-05-07 09:49 | 7.38240 | 80.03037 | 1770 ft | 295 kts | 193° |
| 2026-05-07 09:49 | 7.36395 | 80.02355 | 1630 ft | 271 kts | 211° |
| 2026-05-07 09:50 | 7.34916 | 80.01317 | 1472 ft | 249 kts | 216° |
| 2026-05-07 09:50 | 7.33572 | 80.00312 | 1304 ft | 231 kts | 219° |
| 2026-05-07 09:50 | 7.32317 | 79.99336 | 1609 ft | 235 kts | 220° |
| 2026-05-07 09:50 | 7.31053 | 79.98349 | 1595 ft | 219 kts | 219° |
| 2026-05-07 09:51 | 7.29909 | 79.97469 | 1605 ft | 194 kts | 219° |
| 2026-05-07 09:51 | 7.28908 | 79.96695 | 1611 ft | 169 kts | 219° |
| 2026-05-07 09:51 | 7.28049 | 79.96034 | 1594 ft | 143 kts | 220° |
| 2026-05-07 09:51 | 7.27246 | 79.95412 | 1599 ft | 145 kts | 220° |
| 2026-05-07 09:52 | 7.26446 | 79.94794 | 1600 ft | 143 kts | 219° |
| 2026-05-07 09:52 | 7.25673 | 79.94198 | 1531 ft | 140 kts | 219° |
| 2026-05-07 09:52 | 7.24893 | 79.93597 | 1342 ft | 140 kts | 220° |
| 2026-05-07 09:52 | 7.24135 | 79.93013 | 1178 ft | 136 kts | 220° |
| 2026-05-07 09:53 | 7.23367 | 79.92419 | 1013 ft | 140 kts | 219° |
| 2026-05-07 09:53 | 7.22630 | 79.91854 | 836 ft | 128 kts | 222° |
| 2026-05-07 09:53 | 7.21944 | 79.91323 | 665 ft | 122 kts | 221° |
| 2026-05-07 09:53 | 7.21242 | 79.90780 | 522 ft | 128 kts | 221° |
| 2026-05-07 09:54 | 7.20520 | 79.90224 | 378 ft | 133 kts | 221° |
| 2026-05-07 09:54 | 7.19786 | 79.89650 | 180 ft | 130 kts | 217° |
| 2026-05-07 09:54 | 7.19073 | 79.89116 | 32 ft | 127 kts | 227° |
| 2026-05-07 09:54 | 7.18484 | 79.88653 | 27 ft | 83 kts | 217° |
| 2026-05-07 09:55 | 7.18161 | 79.88410 | 27 ft | 44 kts | 217° |
| 2026-05-07 09:55 | 7.17950 | 79.88253 | 29 ft | 15 kts | 214° |
| 2026-05-07 09:55 | 7.17881 | 79.88217 | 29 ft | 9 kts | 185° |
| 2026-05-07 09:55 | 7.17834 | 79.88260 | 29 ft | 11 kts | 124° |
| 2026-05-07 09:56 | 7.17821 | 79.88277 | 28 ft | 0 kts | 127° |
| 2026-05-07 09:56 | 7.17809 | 79.88294 | 28 ft | 9 kts | 127° |
| 2026-05-07 09:57 | 7.17799 | 79.88359 | 27 ft | 10 kts | 65° |
| 2026-05-07 09:57 | 7.17851 | 79.88415 | 27 ft | 13 kts | 67° |
| 2026-05-07 09:57 | 7.17827 | 79.88479 | 27 ft | 8 kts | 123° |
| 2026-05-07 09:57 | 7.17784 | 79.88537 | 27 ft | 12 kts | 127° |
| 2026-05-07 09:58 | 7.17745 | 79.88589 | 27 ft | 9 kts | 130° |
| 2026-05-07 09:58 | 7.17705 | 79.88625 | 27 ft | 4 kts | 191° |
| 2026-05-07 09:58 | 7.17695 | 79.88620 | 27 ft | 1 kts | 201° |
| 2026-05-07 09:58 | 7.17684 | 79.88616 | 27 ft | 3 kts | 203° |
| 2026-05-07 09:59 | 7.17653 | 79.88595 | 27 ft | 8 kts | 215° |
| 2026-05-07 09:59 | 7.17616 | 79.88567 | 27 ft | 0 kts | 217° |